Home > Products > Valid Products > TAF

000
FTUS44 KSJT 310500
TAFJCT
TAF
KJCT 310528Z 3106/0106 09008KT P6SM BKN050
     FM310900 11007KT P6SM OVC025
     FM311100 13008KT 6SM -RA BR OVC012
     FM311400 15011KT 4SM -RA BR OVC007
     FM312200 16010KT 5SM BR VCSH OVC008=



000
FTUS44 KSJT 310500
TAFABI
TAF
KABI 310528Z 3106/0106 11010KT P6SM SCT030 BKN050
      TEMPO 3107/3110 OVC025
     FM311000 13010KT 5SM -RA BR OVC015
     FM311500 15012KT 2SM RA BR OVC007
     FM312200 16011KT 5SM BR VCSH OVC005
     FM010300 16010KT 2SM -DZ BR OVC003=



000
FTUS44 KSJT 310500
TAFSJT
TAF
KSJT 310528Z 3106/0106 08007KT P6SM BKN050
     FM310800 11008KT 5SM -RA BR OVC025
     FM311200 12010KT 3SM RA BR OVC006
     FM312000 15010KT 5SM BR VCSH OVC008
     FM010300 17008KT 4SM -DZ BR OVC004=



000
FTUS44 KSJT 310400 AAA
TAFJCT
TAF AMD
KJCT 310437Z 3105/3124 07008KT P6SM BKN050
     FM310700 11007KT P6SM OVC025
     FM310900 13008KT 6SM -RA BR OVC015
     FM311400 15011KT 3SM -RA BR OVC006=



000
FTUS44 KSJT 310400 AAA
TAFSJT
TAF AMD
KSJT 310436Z 3105/3124 08007KT P6SM BKN050
     FM310800 10008KT 5SM -RA BR OVC015
     FM311000 13010KT 3SM RA BR OVC007=



000
FTUS44 KSJT 310400 AAA
TAFABI
TAF AMD
KABI 310435Z 3105/3124 11009KT P6SM OVC030
     FM310900 13010KT 5SM -RA BR OVC015
     FM311500 14012KT 2SM RA BR OVC004=



000
FTUS44 KSJT 302300
TAFABI
TAF
KABI 302326Z 3100/3124 09008KT P6SM BKN100
     FM310200 12009KT P6SM OVC040
     FM310900 14010KT 5SM -RA BR OVC015
     FM311500 14012KT 2SM RA BR OVC004=



000
FTUS44 KSJT 302300
TAFJCT
TAF
KJCT 302326Z 3100/3124 07010KT P6SM BKN050
     FM310500 11007KT P6SM OVC025
     FM310900 13008KT 6SM -RA BR OVC015
     FM311400 15011KT 3SM -RA BR OVC006=



000
FTUS44 KSJT 302300
TAFSJT
TAF
KSJT 302326Z 3100/3124 08009KT P6SM BKN050
     FM310400 10007KT P6SM OVC015
     FM310800 10008KT 5SM -RA BR OVC010
     FM311000 13010KT 3SM RA BR OVC007=



000
FTUS44 KSJT 301700 RRA
TAFSJT
TAF
KSJT 301742Z 3018/3118 08010KT P6SM OVC040
     FM310400 10010KT P6SM OVC015
     FM310700 10010KT 5SM -RA BR OVC007
     FM310900 12010KT 4SM RA BR OVC004
     FM311300 12011KT 2SM RA BR OVC004=



000
FTUS44 KSJT 301700 RRA
TAFJCT
TAF
KJCT 301742Z 3018/3118 07010KT P6SM OVC080
     FM310300 10011KT P6SM OVC025
     FM310600 12010KT P6SM OVC015
     FM311200 13011KT 5SM -RA BR OVC008=



000
FTUS44 KSJT 301700 RRA
TAFABI
TAF
KABI 301742Z 3018/3118 09010KT P6SM OVC070
     FM310600 14010KT P6SM OVC025
     FM310900 14011KT 5SM -RA BR OVC015
     FM311300 12011KT 4SM RA BR OVC008
     FM311500 12012KT 2SM RA BR OVC004=



000
FTUS44 KSJT 301100
TAFABI
TAF
KABI 301120Z 3012/3112 08008KT P6SM OVC100
     FM310300 13008KT P6SM OVC050
     FM310600 14010KT P6SM OVC025
     FM310900 14011KT 6SM -RA BR OVC015=



000
FTUS44 KSJT 301100
TAFJCT
TAF
KJCT 301120Z 3012/3112 06007KT P6SM BKN100
     FM301300 07007KT P6SM OVC050
     FM310300 10009KT P6SM OVC015
     FM310600 12008G14KT P6SM OVC015 PROB30 3109/3112 6SM -RA BR=



000
FTUS44 KSJT 301100
TAFSJT
TAF
KSJT 301120Z 3012/3112 04008KT P6SM OVC100
     FM310100 08008KT P6SM OVC050
     FM310400 10008KT P6SM OVC015
     FM310700 10007KT 6SM -RA BR OVC007=



000
FTUS44 KSJT 300500
TAFSJT
TAF
KSJT 300520Z 3006/3106 03011KT P6SM BKN080
     FM301800 08010KT P6SM BKN035
     FM302100 10009KT P6SM BKN030=



000
FTUS44 KSJT 300500
TAFJCT
TAF
KJCT 300520Z 3006/3106 06010KT P6SM BKN100
     FM301700 08008KT P6SM BKN035
     FM310000 10007KT P6SM BKN030=



000
FTUS44 KSJT 300500
TAFABI
TAF
KABI 300520Z 3006/3106 04010KT P6SM BKN080
     FM301700 09010KT P6SM BKN070
     FM310100 11010KT P6SM BKN030=



000
FTUS44 KSJT 292300 RRA
TAFJCT
TAF
KJCT 292342Z 3000/3024 04012G19KT P6SM BKN100
     FM301200 06010KT P6SM BKN100
     FM301700 09008KT P6SM BKN030=



000
FTUS44 KSJT 292300 RRA
TAFSJT
TAF
KSJT 292342Z 3000/3024 03011KT P6SM BKN080
     FM301800 08010KT P6SM BKN035=



000
FTUS44 KSJT 292300 RRA
TAFABI
TAF
KABI 292342Z 3000/3024 02013G19KT P6SM BKN150
     FM300200 03010KT P6SM BKN080
     FM301700 08010KT P6SM BKN040=



000
FTUS44 KSJT 291700
TAFABI
TAF
KABI 291721Z 2918/3018 02015G25KT P6SM BKN150
     FM300100 03010KT P6SM BKN080=



000
FTUS44 KSJT 291700
TAFSJT
TAF
KSJT 291721Z 2918/3018 04013G23KT P6SM SCT100
     FM300100 04010KT P6SM BKN080=



000
FTUS44 KSJT 291700
TAFJCT
TAF
KJCT 291721Z 2918/3018 04012G20KT P6SM SCT250
     FM300100 04008KT P6SM BKN100=



000
FTUS44 KSJT 291100
TAFJCT
TAF
KJCT 291124Z 2912/3012 VRB03KT P6SM SCT250
     FM291700 04014G20KT P6SM BKN100=



000
FTUS44 KSJT 291100
TAFSJT
TAF
KSJT 291124Z 2912/3012 21009KT P6SM SCT100
     FM291300 01010KT P6SM BKN250
     FM291900 04015G24KT P6SM BKN100
     FM300500 04012KT P6SM BKN080=



000
FTUS44 KSJT 291100
TAFABI
TAF
KABI 291124Z 2912/3012 21008KT P6SM SCT250
     FM291300 02011KT P6SM BKN250
     FM291600 02017G26KT P6SM BKN150
     FM300100 03010KT P6SM BKN080=



000
FTUS44 KSJT 290500
TAFABI
TAF
KABI 290536Z 2906/3006 20010KT P6SM SCT250
     FM290900 27010KT P6SM SCT250
     FM291300 02011KT P6SM BKN250
     FM291600 02017G26KT P6SM BKN150
     FM300100 03010KT P6SM BKN080=



000
FTUS44 KSJT 290500
TAFSJT
TAF
KSJT 290536Z 2906/3006 21009KT P6SM SCT250
     FM291300 01010KT P6SM BKN250
     FM291900 04015G22KT P6SM BKN100
     FM300500 04011KT P6SM BKN080=



000
FTUS44 KSJT 290500
TAFJCT
TAF
KJCT 290536Z 2906/3006 VRB03KT P6SM SCT250
     FM291700 04014G20KT P6SM BKN100=



000
FTUS44 KSJT 282300
TAFJCT
TAF
KJCT 282340Z 2900/2924 21011KT P6SM SCT250
     FM290100 VRB03KT P6SM SCT250
     FM291700 04011G18KT P6SM BKN100=



000
FTUS44 KSJT 282300
TAFABI
TAF
KABI 282340Z 2900/2924 20010KT P6SM SCT250
     FM290900 27010KT P6SM SCT250
     FM291200 02011KT P6SM BKN250
     FM291600 02017G26KT P6SM BKN150=



000
FTUS44 KSJT 282300
TAFSJT
TAF
KSJT 282340Z 2900/2924 21009KT P6SM SCT250
     FM291300 01010KT P6SM BKN250
     FM291900 04015G22KT P6SM BKN100=



000
FTUS44 KSJT 281700
TAFJCT
TAF
KJCT 281729Z 2818/2918 21011KT P6SM SCT250
     FM290100 VRB04KT P6SM FEW250
     FM291700 03010G18KT P6SM BKN250=



000
FTUS44 KSJT 281700
TAFABI
TAF
KABI 281729Z 2818/2918 22013G20KT P6SM SCT250
     FM290100 19007KT P6SM SCT250
     FM291300 02012G20KT P6SM BKN250=



000
FTUS44 KSJT 281700
TAFSJT
TAF
KSJT 281729Z 2818/2918 22011G18KT P6SM SCT250
     FM282300 20009KT P6SM FEW250
     FM291500 03012G20KT P6SM BKN250=



000
FTUS44 KSJT 281100
TAFJCT
TAF
KJCT 281123Z 2812/2912 25004KT P6SM FEW250
     FM281900 21011KT P6SM SCT250
     FM290100 VRB04KT P6SM FEW250=



000
FTUS44 KSJT 281100
TAFSJT
TAF
KSJT 281123Z 2812/2912 20005KT P6SM FEW250
     FM281800 22011G18KT P6SM SCT250
     FM282300 20009KT P6SM FEW250=



000
FTUS44 KSJT 281100
TAFABI
TAF
KABI 281123Z 2812/2912 19006KT P6SM FEW250
     FM281800 22013G20KT P6SM SCT250
     FM290100 19007KT P6SM FEW250=



    US Dept of Commerce
    National Oceanic and Atmospheric Administration
    National Weather Service
    1325 East West Highway
    Silver Spring, MD 20910
    Page Author: NWS Internet Services Team
Disclaimer
Information Quality
Credits
Glossary
Privacy Policy
Freedom of Information Act (FOIA)
About Us
Career Opportunities